Time;durP1;ratioP1;P1;durP2;ratioP2;P2;SDS_P1;SDS_P2;PMS_P1;PMS_P2;Temp;Humidity;BMP_temperature;BMP_pressure;BME280_temperature;BME280_humidity;BME280_pressure;Samples;Min_cycle;Max_cycle;Signal;HPM_P1;HPM_P2
2022/01/12 00:02:17;;;;;;;8.70;2.92;;;;;;;-12.33;82.29;100855.75;5056515;28;20048;-69
2022/01/12 00:04:43;;;;;;;8.02;2.92;;;;;;;-12.37;82.56;100867.88;5091459;28;20119;-68
2022/01/12 00:07:09;;;;;;;8.80;2.38;;;;;;;-12.54;81.99;100825.97;5073566;28;20104;-69
2022/01/12 00:09:35;;;;;;;9.80;2.80;;;;;;;-12.35;82.16;100865.31;5073389;28;20039;-69
2022/01/12 00:12:01;;;;;;;16.65;3.47;;;;;;;-12.55;81.89;100834.63;5073407;28;20058;-68
2022/01/12 00:14:27;;;;;;;6.30;1.88;;;;;;;-12.32;82.11;100861.00;5091856;28;20100;-69
2022/01/12 00:16:58;;;;;;;9.88;3.03;;;;;;;-12.36;81.66;100863.53;5073442;28;20059;-68
2022/01/12 00:19:26;;;;;;;9.77;2.50;;;;;;;-12.40;82.12;100870.44;5091573;28;20043;-68
2022/01/12 00:21:55;;;;;;;7.32;2.17;;;;;;;-12.33;81.41;100877.47;5090986;28;20071;-68
2022/01/12 00:24:21;;;;;;;10.32;3.00;;;;;;;-12.37;82.21;100869.59;5057259;28;20044;-68
2022/01/12 00:35:02;;;;;;;8.60;2.40;;;;;;;-12.54;81.45;100857.22;5073091;28;20068;-68
2022/01/12 00:37:29;;;;;;;7.47;2.15;;;;;;;-12.45;82.14;100872.09;5056417;28;20051;-69
2022/01/12 00:39:58;;;;;;;10.65;2.85;;;;;;;-12.49;81.90;100865.97;5056273;28;20071;-68
2022/01/12 00:42:28;;;;;;;7.03;2.40;;;;;;;-12.43;82.04;100876.50;5091015;28;20048;-69
2022/01/12 00:44:54;;;;;;;9.23;2.60;;;;;;;-12.71;81.93;100832.66;5092140;28;20046;-68
2022/01/12 00:47:20;;;;;;;7.72;2.40;;;;;;;-12.53;82.03;100853.75;5073969;28;20052;-71
2022/01/12 00:49:46;;;;;;;9.38;2.72;;;;;;;-12.71;82.05;100830.06;5091417;28;20089;-67
2022/01/12 00:52:12;;;;;;;9.75;2.47;;;;;;;-12.51;81.92;100862.47;5091217;28;20479;-67
2022/01/12 00:54:38;;;;;;;10.45;2.58;;;;;;;-12.65;81.74;100837.94;5091105;28;20123;-69
2022/01/12 00:57:04;;;;;;;7.68;2.10;;;;;;;-12.64;81.40;100855.34;5056287;28;20048;-70
2022/01/12 00:59:30;;;;;;;11.55;3.55;;;;;;;-12.66;80.10;100865.72;5072933;28;20059;-69
2022/01/12 01:01:57;;;;;;;8.60;1.95;;;;;;;-12.94;79.91;100825.41;5072962;28;20407;-67
2022/01/12 01:04:25;;;;;;;6.53;1.85;;;;;;;-12.77;80.83;100851.66;5073026;28;20055;-68
2022/01/12 01:06:54;;;;;;;5.60;1.27;;;;;;;-12.68;81.12;100858.75;5073057;28;20043;-69
2022/01/12 01:09:23;;;;;;;7.90;2.13;;;;;;;-12.68;80.34;100872.66;5056127;28;20041;-69
2022/01/12 01:11:51;;;;;;;7.68;2.38;;;;;;;-12.69;80.53;100872.59;5072682;28;20048;-69
2022/01/12 01:14:33;;;;;;;6.72;1.98;;;;;;;-12.73;80.96;100871.69;5056374;28;20040;-67
2022/01/12 01:25:33;;;;;;;6.22;1.52;;;;;;;-12.79;78.37;100862.94;5090250;28;20517;-69
2022/01/12 01:28:00;;;;;;;6.22;1.90;;;;;;;-12.83;78.11;100876.72;5090146;28;20070;-67
2022/01/12 01:30:26;;;;;;;8.32;2.47;;;;;;;-12.90;78.79;100868.84;5072039;28;20101;-68
2022/01/12 01:32:53;;;;;;;11.18;1.95;;;;;;;-13.11;78.09;100824.25;5072113;28;20064;-67
2022/01/12 01:35:20;;;;;;;5.85;1.83;;;;;;;-12.93;78.19;100855.78;5072393;28;20043;-68
2022/01/12 01:37:45;;;;;;;5.13;1.45;;;;;;;-13.27;77.41;100825.78;5055718;28;20055;-69
2022/01/12 01:40:13;;;;;;;8.52;2.30;;;;;;;-12.93;77.71;100866.19;5057121;28;20044;-68
2022/01/12 01:43:09;;;;;;;7.68;2.10;;;;;;;-12.92;78.66;100867.91;5076191;28;20073;-68
2022/01/12 01:53:55;;;;;;;11.07;3.10;;;;;;;-13.22;80.27;100818.88;5045946;28;20048;-69
2022/01/12 01:56:24;;;;;;;10.60;3.13;;;;;;;-13.01;81.40;100862.59;5080291;28;20448;-67
2022/01/12 01:58:50;;;;;;;10.02;2.65;;;;;;;-12.99;82.16;100865.19;5098423;28;20040;-68
2022/01/12 02:01:18;;;;;;;10.15;3.28;;;;;;;-13.04;81.55;100852.13;5079514;28;20113;-69
2022/01/12 02:03:54;;;;;;;9.30;2.13;;;;;;;-13.14;80.93;100860.63;5064708;28;20045;-69
2022/01/12 02:06:20;;;;;;;9.25;2.53;;;;;;;-13.10;80.22;100859.81;5064621;28;20051;-67
2022/01/12 02:08:46;;;;;;;7.63;2.00;;;;;;;-13.28;79.98;100810.13;5098538;28;20040;-68
2022/01/12 02:11:26;;;;;;;8.63;2.95;;;;;;;-13.11;79.75;100847.66;5063116;28;20048;-68
2022/01/12 02:13:55;;;;;;;11.90;2.45;;;;;;;-13.18;79.61;100851.00;5064085;28;20036;-69
2022/01/12 02:16:35;;;;;;;8.40;2.47;;;;;;;-13.17;79.22;100853.63;5080887;28;20071;-68
2022/01/12 02:35:46;;;;;;;;;;;;;;;-13.05;80.42;100837.38;5067525;28;20126;-68
2022/01/12 02:40:56;;;;;;;11.80;3.22;;;;;;;-13.28;80.07;100833.53;5061184;28;20104;-68
2022/01/12 02:51:34;;;;;;;10.57;2.70;;;;;;;-13.37;80.78;100819.53;5093064;28;20142;-67
2022/01/12 02:54:00;;;;;;;8.57;2.50;;;;;;;-13.51;80.75;100787.22;5075203;28;20048;-69
2022/01/12 02:56:29;;;;;;;7.07;2.53;;;;;;;-13.27;80.27;100824.88;5074864;28;20044;-67
2022/01/12 02:58:58;;;;;;;6.50;1.92;;;;;;;-13.24;79.62;100824.94;5074946;28;20482;-68
2022/01/12 03:03:54;;;;;;;8.93;2.50;;;;;;;-13.29;79.68;100821.38;5093150;28;20089;-68
2022/01/12 03:06:25;;;;;;;8.77;2.53;;;;;;;-13.26;80.23;100821.44;5074664;28;20040;-69
2022/01/12 03:08:51;;;;;;;7.35;1.90;;;;;;;-13.25;80.20;100820.59;5074630;28;20051;-68
2022/01/12 03:11:19;;;;;;;10.68;3.05;;;;;;;-13.26;80.00;100821.44;5058249;28;20044;-69
2022/01/12 03:13:49;;;;;;;9.65;2.50;;;;;;;-13.33;79.75;100809.19;5041378;28;20051;-68
2022/01/12 03:16:21;;;;;;;9.82;2.88;;;;;;;-13.31;79.74;100815.28;5074782;28;20044;-69
2022/01/12 03:18:59;;;;;;;10.90;3.50;;;;;;;-13.29;79.78;100803.19;5111081;28;20040;-71
2022/01/12 03:21:32;;;;;;;10.40;2.72;;;;;;;-13.30;80.71;100804.03;5077995;28;20134;-68
2022/01/12 03:23:58;;;;;;;4.72;1.27;;;;;;;-13.27;80.37;100815.38;5074275;28;20115;-68
2022/01/12 03:26:28;;;;;;;3.40;1.13;;;;;;;-13.12;79.52;100815.56;5074564;28;20056;-70
2022/01/12 03:28:55;;;;;;;9.57;2.65;;;;;;;-13.17;79.65;100821.53;5059697;28;20105;-68
2022/01/12 03:31:27;;;;;;;9.50;2.58;;;;;;;-13.48;80.07;100774.28;5073819;28;20134;-68
2022/01/12 03:33:58;;;;;;;5.93;1.90;;;;;;;-13.20;80.50;100821.47;5108083;28;20051;-69
2022/01/12 03:38:53;;;;;;;9.82;3.35;;;;;;;-13.35;80.19;100795.25;5074384;28;20412;-69
2022/01/12 03:41:19;;;;;;;10.32;3.08;;;;;;;-13.38;80.50;100786.59;5043084;28;20120;-68
2022/01/12 03:43:46;;;;;;;8.88;2.70;;;;;;;-13.20;80.36;100825.00;5076036;28;20068;-68
2022/01/12 03:46:14;;;;;;;10.85;3.45;;;;;;;-13.22;81.58;100803.28;5075367;28;20145;-69
2022/01/12 03:48:40;;;;;;;12.68;3.90;;;;;;;-13.30;81.39;100797.09;5073917;28;20101;-68
2022/01/12 03:51:06;;;;;;;6.30;2.13;;;;;;;-13.32;81.25;100800.53;5091870;28;20059;-68
2022/01/12 03:53:32;;;;;;;12.93;3.92;;;;;;;-13.22;81.44;100813.66;5074222;28;20048;-68
2022/01/12 03:55:58;;;;;;;11.23;3.70;;;;;;;-13.19;81.60;100823.25;5057247;28;20044;-68
2022/01/12 03:58:24;;;;;;;11.70;3.55;;;;;;;-13.40;81.38;100793.47;5073349;28;20051;-69
2022/01/12 04:00:50;;;;;;;6.32;1.98;;;;;;;-13.16;81.73;100829.38;5090983;28;20118;-66
2022/01/12 04:03:16;;;;;;;8.82;2.90;;;;;;;-13.15;81.51;100819.84;5057443;28;20044;-71
2022/01/12 04:08:28;;;;;;;10.13;3.10;;;;;;;-13.19;81.44;100812.84;5052199;28;20052;-69
2022/01/12 04:11:00;;;;;;;10.10;2.67;;;;;;;-13.19;80.94;100818.06;5081071;28;20036;-68
2022/01/12 04:13:30;;;;;;;8.70;3.15;;;;;;;-13.20;80.32;100811.09;5053177;28;20072;-69
2022/01/12 04:16:03;;;;;;;8.52;2.72;;;;;;;-13.43;79.12;100772.59;5089130;28;20044;-70
2022/01/12 04:18:29;;;;;;;7.28;2.35;;;;;;;-13.20;79.34;100821.47;5038005;28;20052;-69
2022/01/12 04:20:57;;;;;;;10.80;3.70;;;;;;;-13.72;79.73;100742.66;5089688;28;20620;-75
2022/01/12 04:23:23;;;;;;;10.05;2.53;;;;;;;-13.40;79.28;100803.00;5065442;28;20522;-72
2022/01/12 04:25:52;;;;;;;9.95;2.85;;;;;;;-13.62;79.69;100775.75;5080504;28;20334;-70
2022/01/12 04:28:20;;;;;;;8.30;2.42;;;;;;;-13.33;79.38;100819.59;5070866;28;20064;-69
2022/01/12 04:30:46;;;;;;;10.90;3.70;;;;;;;-13.44;78.76;100806.41;5069977;28;20032;-72
2022/01/12 04:33:12;;;;;;;9.07;2.67;;;;;;;-13.48;79.30;100804.59;5090016;28;20475;-71
2022/01/12 04:35:50;;;;;;;10.88;2.85;;;;;;;-13.43;79.74;100811.63;5057967;28;20119;-71
2022/01/12 04:38:17;;;;;;;10.80;2.88;;;;;;;-13.36;80.07;100794.41;5059261;28;20109;-72
2022/01/12 04:40:45;;;;;;;14.13;3.40;;;;;;;-13.41;79.33;100794.31;5041431;28;20093;-71
2022/01/12 04:43:11;;;;;;;10.75;3.10;;;;;;;-13.62;79.65;100754.97;5040259;28;20068;-72
2022/01/12 04:45:57;;;;;;;11.35;3.05;;;;;;;-13.60;79.65;100774.03;5058537;28;20036;-70
2022/01/12 04:50:53;;;;;;;11.80;3.55;;;;;;;-13.39;79.22;100810.81;5058955;28;20051;-71
2022/01/12 04:53:19;;;;;;;10.30;3.63;;;;;;;-13.45;79.37;100813.34;5058958;28;20084;-71
2022/01/12 04:55:46;;;;;;;9.85;2.97;;;;;;;-13.42;79.35;100810.78;5074927;28;20040;-70
2022/01/12 04:58:14;;;;;;;11.25;3.17;;;;;;;-13.46;80.08;100808.97;5058832;28;20142;-71
2022/01/12 05:00:42;;;;;;;8.25;2.35;;;;;;;-13.48;80.14;100794.19;5074600;28;20052;-71
2022/01/12 05:13:51;;;;;;;12.65;3.78;;;;;;;-13.48;79.72;100823.69;5059648;28;20055;-71
2022/01/12 05:16:18;;;;;;;10.88;2.92;;;;;;;-13.52;79.46;100810.59;5075717;28;20047;-71
2022/01/12 05:18:45;;;;;;;8.25;2.80;;;;;;;-13.54;79.78;100813.16;5042962;28;20562;-72
2022/01/12 05:21:12;;;;;;;12.50;4.28;;;;;;;-13.57;79.79;100779.31;5039691;28;20516;-72
2022/01/12 05:23:38;;;;;;;8.80;2.65;;;;;;;-13.37;79.45;100821.25;5073204;28;20463;-71
2022/01/12 05:26:05;;;;;;;11.90;3.05;;;;;;;-13.66;78.75;100794.75;5056314;28;20066;-72
2022/01/12 05:28:32;;;;;;;9.57;3.67;;;;;;;-13.48;79.46;100815.88;5056149;28;20462;-72
2022/01/12 05:30:58;;;;;;;11.70;3.92;;;;;;;-13.43;80.22;100822.00;5077030;28;20100;-71
2022/01/12 05:33:25;;;;;;;9.35;2.70;;;;;;;-13.44;79.60;100822.88;5060498;28;20143;-71
2022/01/12 05:35:56;;;;;;;12.05;3.92;;;;;;;-13.60;79.69;100784.44;5043893;28;20590;-71
2022/01/12 05:38:23;;;;;;;10.60;3.60;;;;;;;-13.41;79.91;100816.88;5061996;28;20140;-73
2022/01/12 05:40:55;;;;;;;3.40;1.25;;;;;;;-13.39;78.92;100828.16;5045182;28;20173;-72
2022/01/12 05:43:26;;;;;;;11.18;4.47;;;;;;;-13.47;79.13;100812.41;5097236;28;20503;-73
2022/01/12 05:45:54;;;;;;;9.88;2.95;;;;;;;-13.35;80.13;100831.69;5079438;28;20043;-72
2022/01/12 05:50:49;;;;;;;9.45;2.53;;;;;;;-13.66;78.25;100776.56;5078468;28;20040;-72
2022/01/12 05:53:19;;;;;;;8.05;2.80;;;;;;;-13.43;78.39;100823.75;5078570;28;20048;-72
2022/01/12 05:55:50;;;;;;;10.52;3.00;;;;;;;-13.45;78.41;100821.13;5046527;28;20048;-71
2022/01/12 05:58:15;;;;;;;8.70;2.90;;;;;;;-13.88;78.60;100742.41;5077611;28;20055;-71
2022/01/12 06:00:41;;;;;;;9.85;2.85;;;;;;;-13.41;78.75;100820.34;5062362;28;20051;-72
2022/01/12 06:03:07;;;;;;;8.30;2.35;;;;;;;-13.50;78.22;100807.16;5063977;28;20076;-72
2022/01/12 06:05:34;;;;;;;12.32;3.17;;;;;;;-13.38;78.29;100816.88;5080685;28;20142;-71
2022/01/12 06:08:00;;;;;;;12.63;3.30;;;;;;;-13.61;78.77;100787.91;5063661;28;20333;-72
2022/01/12 06:10:28;;;;;;;10.25;2.45;;;;;;;-13.40;77.86;100824.69;5046175;28;20048;-72
2022/01/12 06:12:55;;;;;;;12.25;3.70;;;;;;;-13.46;77.96;100808.97;5077612;28;20113;-71
2022/01/12 06:15:24;;;;;;;12.68;4.30;;;;;;;-13.69;78.07;100779.97;5078620;28;20036;-72
2022/01/12 06:17:50;;;;;;;7.18;2.38;;;;;;;-13.44;77.91;100812.47;5061644;28;20153;-71
2022/01/12 06:20:16;;;;;;;9.15;2.95;;;;;;;-13.40;78.26;100806.47;5095708;28;20640;-73
2022/01/12 06:23:00;;;;;;;11.45;3.35;;;;;;;-13.45;78.09;100815.94;5063572;28;20050;-72
2022/01/12 06:25:27;;;;;;;12.35;4.20;;;;;;;-13.53;78.05;100833.09;5062055;28;20067;-71
2022/01/12 06:28:08;;;;;;;11.70;3.20;;;;;;;-13.79;77.45;100782.38;5061639;28;20071;-71
2022/01/12 06:31:26;;;;;;;12.90;3.45;;;;;;;-13.75;77.60;100794.56;5047109;28;20070;-73
2022/01/12 06:33:20;;;;;;;12.30;4.00;;;;;;;-13.60;77.34;100841.63;5067068;28;20492;-71
2022/01/12 06:35:46;;;;;;;9.27;2.75;;;;;;;-13.57;77.73;100846.91;5044000;28;20055;-72
2022/01/12 06:38:12;;;;;;;9.30;2.33;;;;;;;-13.49;76.63;100840.13;5044069;28;20043;-72
2022/01/12 06:40:38;;;;;;;14.65;3.47;;;;;;;-13.65;76.38;100791.28;5060818;28;20075;-72
2022/01/12 06:43:05;;;;;;;15.98;2.97;;;;;;;-13.31;75.23;100849.06;5043942;28;20040;-72
2022/01/12 06:45:35;;;;;;;10.57;3.05;;;;;;;-13.38;75.99;100848.09;5061248;28;20052;-72
2022/01/12 06:48:01;;;;;;;10.52;3.28;;;;;;;-13.72;76.18;100799.84;5076855;28;20411;-71
2022/01/12 06:50:27;;;;;;;11.02;3.28;;;;;;;-13.42;76.58;100847.19;5061758;28;20123;-71
2022/01/12 06:52:52;;;;;;;13.05;3.97;;;;;;;-13.51;76.47;100846.16;5027118;28;20039;-72
2022/01/12 06:55:19;;;;;;;10.45;3.30;;;;;;;-13.70;76.41;100819.81;5060188;28;20124;-70
2022/01/12 06:57:45;;;;;;;9.50;3.03;;;;;;;-13.42;76.38;100847.19;5075812;28;20472;-72
2022/01/12 07:00:12;;;;;;;8.52;2.78;;;;;;;-13.55;76.46;100808.81;5059232;28;20055;-72
2022/01/12 07:02:38;;;;;;;7.57;2.33;;;;;;;-13.40;74.86;100819.47;5059835;28;20055;-71
2022/01/12 07:05:04;;;;;;;9.25;2.47;;;;;;;-13.11;74.84;100842.47;5043136;28;20040;-71
2022/01/12 07:07:30;;;;;;;11.00;3.15;;;;;;;-13.08;74.02;100815.63;5042425;28;20044;-72
2022/01/12 07:10:03;;;;;;;12.32;3.47;;;;;;;-12.65;74.15;100827.53;5059228;28;20131;-72
2022/01/12 07:12:32;;;;;;;11.50;3.15;;;;;;;-12.62;73.79;100817.16;5061226;28;20048;-72
2022/01/12 07:14:58;;;;;;;8.35;2.45;;;;;;;-12.28;72.42;100822.84;5059756;28;20517;-71
2022/01/12 07:17:25;;;;;;;12.57;3.97;;;;;;;-12.81;72.67;100789.13;5059909;28;20357;-71
2022/01/12 07:19:50;;;;;;;10.45;3.17;;;;;;;-11.99;71.22;100824.06;5043005;28;20498;-71
2022/01/12 07:22:16;;;;;;;9.75;2.85;;;;;;;-11.35;68.91;100809.91;5059404;28;20383;-72
2022/01/12 07:24:42;;;;;;;13.05;3.42;;;;;;;-10.39;67.54;100828.00;5059453;28;20047;-72
2022/01/12 07:27:08;;;;;;;16.17;4.05;;;;;;;-10.93;65.56;100820.69;5075222;28;20123;-72
2022/01/12 07:29:34;;;;;;;12.60;3.78;;;;;;;-10.23;65.30;100808.88;5075443;28;20480;-72
2022/01/12 07:31:59;;;;;;;15.50;4.13;;;;;;;-9.78;62.48;100828.22;5075685;28;20538;-72
2022/01/12 07:34:25;;;;;;;15.50;3.53;;;;;;;-10.10;64.86;100821.13;5075364;28;20214;-71
2022/01/12 07:36:51;;;;;;;15.80;4.20;;;;;;;-9.98;62.22;100831.66;5075434;28;20044;-71
2022/01/12 07:39:17;;;;;;;19.77;3.35;;;;;;;-9.13;60.89;100839.69;5075230;28;20471;-71
2022/01/12 07:41:43;;;;;;;14.60;3.40;;;;;;;-9.78;61.71;100833.47;5076229;28;20064;-72
2022/01/12 07:44:09;;;;;;;12.40;2.88;;;;;;;-9.33;61.34;100837.91;5075879;28;20040;-71
2022/01/12 07:46:35;;;;;;;9.10;2.88;;;;;;;-8.54;59.12;100789.84;5059312;28;20086;-73
2022/01/12 07:49:00;;;;;;;11.98;4.32;;;;;;;-9.18;59.43;100834.44;5059113;28;20215;-72
2022/01/12 07:51:26;;;;;;;12.15;3.88;;;;;;;-9.04;58.58;100830.06;5059360;28;20170;-73
2022/01/12 07:53:52;;;;;;;15.73;3.42;;;;;;;-9.77;60.09;100793.34;5078693;28;20068;-73
2022/01/12 07:56:17;;;;;;;16.55;3.90;;;;;;;-8.15;57.92;100808.94;5060780;28;20165;-73
2022/01/12 07:58:43;;;;;;;9.77;3.05;;;;;;;-9.61;60.03;100794.28;5042322;28;20043;-72
2022/01/12 08:01:09;;;;;;;14.70;4.00;;;;;;;-9.66;61.47;100812.56;5075748;28;20422;-72
2022/01/12 08:03:35;;;;;;;14.77;4.53;;;;;;;-10.07;61.86;100820.28;5059122;28;20055;-72
2022/01/12 08:06:01;;;;;;;12.60;3.90;;;;;;;-9.32;62.14;100817.88;5075890;28;20040;-72
2022/01/12 08:08:26;;;;;;;11.13;3.15;;;;;;;-10.19;62.07;100815.88;5076182;28;20101;-72
2022/01/12 08:10:52;;;;;;;10.52;3.58;;;;;;;-10.01;62.51;100794.16;5093369;28;20040;-72
2022/01/12 08:13:18;;;;;;;8.05;2.65;;;;;;;-9.81;61.34;100807.28;5094525;28;20118;-72
2022/01/12 08:15:44;;;;;;;11.02;3.13;;;;;;;-10.32;62.76;100790.56;5059057;28;20414;-72
2022/01/12 08:18:09;;;;;;;13.98;4.05;;;;;;;-10.11;62.40;100811.53;5059125;28;20044;-72
2022/01/12 08:20:35;;;;;;;12.10;3.47;;;;;;;-10.29;62.32;100799.31;5058886;28;20135;-72
2022/01/12 08:23:01;;;;;;;12.45;3.53;;;;;;;-10.59;63.97;100810.47;5094443;28;20076;-72
2022/01/12 08:25:27;;;;;;;11.75;3.67;;;;;;;-10.88;63.89;100780.69;5044113;28;20078;-72
2022/01/12 08:27:53;;;;;;;11.57;2.75;;;;;;;-10.75;63.67;100813.84;5059320;28;20048;-72
2022/01/12 08:30:21;;;;;;;7.80;2.55;;;;;;;-10.82;64.50;100796.38;5059170;28;20380;-72
2022/01/12 08:32:51;;;;;;;7.78;1.85;;;;;;;-10.99;63.58;100807.59;5043633;28;20059;-72
2022/01/12 08:35:17;;;;;;;8.32;2.55;;;;;;;-11.20;64.71;100807.41;5075663;28;20393;-72
2022/01/12 08:37:44;;;;;;;12.23;4.47;;;;;;;-10.40;62.89;100789.66;5075889;28;20068;-71
2022/01/12 08:40:13;;;;;;;10.88;3.38;;;;;;;-10.23;62.51;100794.06;5075121;28;20551;-72
2022/01/12 08:42:39;;;;;;;6.88;2.60;;;;;;;-9.41;61.08;100791.66;5075547;28;20411;-72
2022/01/12 08:45:06;;;;;;;12.07;4.03;;;;;;;-8.66;57.64;100787.28;5075544;28;20138;-72
2022/01/12 08:47:32;;;;;;;12.90;3.80;;;;;;;-8.29;56.16;100795.88;5075627;28;20059;-72
2022/01/12 08:49:58;;;;;;;10.82;3.42;;;;;;;-9.02;57.96;100746.28;5075723;28;20044;-72
2022/01/12 08:52:24;;;;;;;13.85;3.95;;;;;;;-8.10;56.06;100780.94;5095653;28;20057;-73
2022/01/12 08:54:51;;;;;;;15.35;3.97;;;;;;;-9.41;58.00;100731.47;5079248;28;20134;-72
2022/01/12 08:57:17;;;;;;;10.77;3.03;;;;;;;-6.74;53.17;100792.22;5062709;28;20044;-73
2022/01/12 08:59:44;;;;;;;15.20;3.83;;;;;;;-6.34;51.17;100754.97;5077775;28;20048;-73
2022/01/12 09:02:13;;;;;;;7.57;2.28;;;;;;;-7.36;50.97;100785.75;5076079;28;20040;-72
2022/01/12 09:04:39;;;;;;;13.98;2.97;;;;;;;-6.56;51.08;100785.91;5073960;28;20044;-72
2022/01/12 09:07:05;;;;;;;14.05;3.90;;;;;;;-5.38;48.95;100773.81;5057207;28;20047;-73
2022/01/12 09:09:31;;;;;;;14.95;4.05;;;;;;;-6.11;49.04;100779.25;5074217;28;20134;-72
2022/01/12 09:11:57;;;;;;;14.75;3.72;;;;;;;-5.63;46.64;100771.59;5057113;28;20097;-74
2022/01/12 09:14:23;;;;;;;12.52;4.50;;;;;;;-4.62;45.12;100775.19;5056906;28;20151;-74
2022/01/12 09:16:55;;;;;;;16.13;3.33;;;;;;;-6.78;48.98;100771.25;5075473;28;20556;-73
2022/01/12 09:19:25;;;;;;;10.30;3.22;;;;;;;-7.17;50.12;100765.44;5074460;28;20129;-73
2022/01/12 09:21:51;;;;;;;9.13;3.42;;;;;;;-5.40;48.48;100780.91;5073641;28;20569;-72
2022/01/12 09:24:17;;;;;;;14.48;4.60;;;;;;;-4.31;46.31;100744.69;5073981;28;20131;-73
2022/01/12 09:26:44;;;;;;;18.00;3.97;;;;;;;-3.67;45.30;100746.84;5057219;28;20043;-73
2022/01/12 09:29:09;;;;;;;13.73;4.93;;;;;;;-2.73;44.09;100741.91;5091972;28;20054;-73
2022/01/12 09:31:35;;;;;;;11.73;3.90;;;;;;;-2.12;41.60;100731.38;5056830;28;20043;-73
2022/01/12 09:34:05;;;;;;;12.30;4.13;;;;;;;-2.00;40.79;100733.69;5073026;28;20177;-73
2022/01/12 09:36:31;;;;;;;14.63;3.78;;;;;;;-1.92;40.26;100731.66;5023413;28;20075;-73
2022/01/12 09:38:58;;;;;;;13.98;4.93;;;;;;;-1.68;40.22;100723.88;5072908;28;20044;-73
2022/01/12 09:41:25;;;;;;;20.75;4.10;;;;;;;-2.52;40.49;100708.72;5073389;28;20070;-72
2022/01/12 09:43:52;;;;;;;13.05;4.82;;;;;;;-1.95;39.48;100690.22;5073510;28;20124;-73
2022/01/12 09:46:19;;;;;;;13.40;4.18;;;;;;;-0.99;37.81;100709.25;5073677;28;20039;-72
2022/01/12 09:48:45;;;;;;;12.63;4.18;;;;;;;-0.49;38.14;100715.44;5091516;28;20044;-73
2022/01/12 09:51:11;;;;;;;12.82;4.15;;;;;;;-0.91;39.35;100712.53;5072740;28;20044;-74
2022/01/12 09:53:38;;;;;;;12.68;4.10;;;;;;;-1.19;38.22;100711.72;5072854;28;20051;-74
2022/01/12 09:56:24;;;;;;;10.50;3.97;;;;;;;-2.24;39.95;100696.38;5072864;28;20052;-72
2022/01/12 09:58:54;;;;;;;10.82;3.92;;;;;;;-2.11;39.46;100709.28;5073498;28;20044;-73
2022/01/12 10:01:31;;;;;;;11.45;4.15;;;;;;;-2.81;40.29;100691.84;5091852;28;20407;-74
2022/01/12 10:04:11;;;;;;;10.57;3.65;;;;;;;-3.69;41.47;100711.66;5055906;28;20048;-74
2022/01/12 10:06:39;;;;;;;12.05;4.22;;;;;;;-2.94;40.86;100716.88;5073831;28;20044;-74
2022/01/12 10:09:05;;;;;;;11.65;4.43;;;;;;;-2.46;40.43;100692.63;5073257;28;20044;-73
2022/01/12 10:11:31;;;;;;;13.13;3.95;;;;;;;-2.65;41.14;100709.94;5072681;28;20052;-74
2022/01/12 10:13:58;;;;;;;12.43;4.82;;;;;;;-2.55;41.12;100704.34;5040144;28;20523;-74
2022/01/12 10:16:26;;;;;;;11.25;4.30;;;;;;;-3.78;42.56;100705.72;5059437;28;20043;-73
2022/01/12 10:18:55;;;;;;;12.00;4.53;;;;;;;-4.63;45.08;100715.41;5026865;28;20482;-74
2022/01/12 10:21:38;;;;;;;13.43;3.97;;;;;;;-5.49;45.23;100688.81;5060348;28;20059;-74
2022/01/12 10:24:10;;;;;;;13.07;4.40;;;;;;;-3.34;44.27;100715.22;5094820;28;20120;-73
2022/01/12 10:26:42;;;;;;;12.40;4.30;;;;;;;-4.44;43.98;100641.16;5095016;28;20134;-75
2022/01/12 10:29:16;;;;;;;13.45;4.25;;;;;;;-3.57;43.95;100702.59;5043607;28;20071;-73
2022/01/12 10:31:53;;;;;;;12.15;4.15;;;;;;;-4.93;45.70;100689.63;5076812;28;20122;-74
2022/01/12 10:34:21;;;;;;;;;;;;;;;-4.69;45.14;100709.38;5065398;28;20073;-74
2022/01/12 10:36:47;;;;;;;14.93;4.45;;;;;;;-5.95;47.78;100716.78;5028511;28;19916;-74
2022/01/12 10:39:15;;;;;;;10.02;3.83;;;;;;;-6.60;49.19;100690.41;5076084;28;20040;-75
2022/01/12 10:42:01;;;;;;;13.48;4.47;;;;;;;-6.77;50.63;100692.34;5076232;28;20066;-76
2022/01/12 10:44:42;;;;;;;11.80;3.88;;;;;;;-6.19;49.53;100665.31;5042709;28;20166;-72
2022/01/12 10:47:13;;;;;;;15.35;4.63;;;;;;;-6.45;49.29;100684.09;5075579;28;20125;-75
2022/01/12 10:49:53;;;;;;;12.75;4.25;;;;;;;-6.78;50.23;100680.09;5094121;28;20055;-74
2022/01/12 10:52:21;;;;;;;13.95;4.97;;;;;;;-7.36;50.82;100685.94;5094510;28;20311;-73
2022/01/12 10:54:57;;;;;;;11.80;3.90;;;;;;;-7.29;53.01;100687.63;5058904;28;20071;-73
2022/01/12 10:57:27;;;;;;;12.48;3.88;;;;;;;-7.60;51.93;100672.16;5076678;28;20048;-75
2022/01/12 11:00:00;;;;;;;12.70;4.70;;;;;;;-6.82;50.68;100667.88;5059231;28;20415;-73
2022/01/12 11:02:30;;;;;;;15.65;5.13;;;;;;;-6.97;49.87;100605.00;5043821;28;20044;-74
2022/01/12 11:05:00;;;;;;;11.15;4.20;;;;;;;-4.94;48.01;100664.13;5076692;28;20047;-73
2022/01/12 11:07:26;;;;;;;12.77;3.80;;;;;;;-5.21;46.60;100663.75;5093294;28;20418;-74
2022/01/12 11:09:58;;;;;;;12.13;3.92;;;;;;;-6.87;49.81;100661.81;5060491;28;20072;-74
2022/01/12 11:12:25;;;;;;;12.30;3.65;;;;;;;-7.57;52.02;100655.47;5042431;28;20127;-74
2022/01/12 11:14:51;;;;;;;14.90;4.20;;;;;;;-8.14;53.13;100636.69;5059259;28;20178;-73
2022/01/12 11:17:17;;;;;;;17.00;3.90;;;;;;;-6.09;50.41;100664.31;5076552;28;20040;-73
2022/01/12 11:20:16;;;;;;;11.23;3.47;;;;;;;-6.09;47.80;100653.78;5059017;28;20458;-73
2022/01/12 11:22:51;;;;;;;12.45;4.53;;;;;;;-4.33;46.92;100659.41;5075611;28;20546;-73
2022/01/12 11:25:29;;;;;;;11.63;4.10;;;;;;;-4.04;45.55;100664.06;5042590;28;20552;-75
2022/01/12 11:28:16;;;;;;;12.40;3.95;;;;;;;-4.78;46.08;100625.16;5074755;28;20451;-73
2022/01/12 11:30:50;;;;;;;11.60;4.20;;;;;;;-3.39;43.82;100651.03;5059602;28;20048;-74
2022/01/12 11:33:23;;;;;;;12.98;3.42;;;;;;;-3.47;42.32;100616.03;5093772;28;20490;-74
2022/01/12 11:35:53;;;;;;;10.32;3.25;;;;;;;-4.87;44.41;100642.03;5089919;28;20204;-74
2022/01/12 11:38:23;;;;;;;10.02;3.33;;;;;;;-5.87;46.51;100619.22;5075268;28;20036;-73
2022/01/12 11:40:50;;;;;;;11.15;3.60;;;;;;;-6.72;48.73;100635.34;5076066;28;20044;-73
2022/01/12 11:43:27;;;;;;;12.57;4.00;;;;;;;-7.74;51.95;100589.16;5043307;28;20078;-73
2022/01/12 11:46:12;;;;;;;12.48;4.32;;;;;;;-8.19;52.92;100648.94;5042910;28;20090;-73
2022/01/12 11:48:49;;;;;;;11.57;3.80;;;;;;;-7.81;52.05;100556.84;5042400;28;20054;-74
2022/01/12 11:51:19;;;;;;;16.58;4.68;;;;;;;-7.05;51.05;100649.75;5041971;28;20467;-73
2022/01/12 11:53:49;;;;;;;12.95;4.28;;;;;;;-6.20;50.61;100637.28;5077798;28;20089;-74
2022/01/12 11:56:18;;;;;;;15.20;4.90;;;;;;;-6.91;51.45;100632.09;5043399;28;20500;-74
2022/01/12 11:59:07;;;;;;;13.43;4.50;;;;;;;-6.89;50.02;100580.34;5075945;28;20047;-73
2022/01/12 12:01:44;;;;;;;14.68;4.45;;;;;;;-5.89;48.72;100615.72;5059206;28;20109;-73
2022/01/12 12:04:20;;;;;;;16.42;5.03;;;;;;;-5.58;48.57;100614.34;5076319;28;20040;-73
2022/01/12 12:06:46;;;;;;;13.25;3.95;;;;;;;-5.29;47.04;100604.19;5075641;28;20182;-74
2022/01/12 12:09:18;;;;;;;12.45;4.22;;;;;;;-5.32;46.93;100607.72;5075450;28;20431;-74
2022/01/12 12:11:51;;;;;;;12.32;4.05;;;;;;;-6.10;47.89;100612.59;5075296;28;20439;-73
2022/01/12 12:14:18;;;;;;;14.45;4.93;;;;;;;-6.62;49.17;100605.44;5075208;28;20136;-74
2022/01/12 12:16:45;;;;;;;11.63;3.95;;;;;;;-7.67;50.60;100578.59;5074514;28;20457;-73
2022/01/12 12:19:11;;;;;;;13.82;4.10;;;;;;;-8.68;54.46;100586.34;5042776;28;20121;-74
2022/01/12 12:21:37;;;;;;;12.98;4.00;;;;;;;-9.02;55.43;100586.50;5041351;28;20101;-74
2022/01/12 12:24:11;;;;;;;18.38;4.65;;;;;;;-9.14;56.25;100587.44;5075019;28;20079;-72
2022/01/12 12:26:55;;;;;;;12.63;4.07;;;;;;;-9.95;57.76;100512.59;5074871;28;20043;-75
2022/01/12 12:29:28;;;;;;;13.68;4.90;;;;;;;-10.08;59.78;100567.53;5074111;28;20103;-73
2022/01/12 12:31:56;;;;;;;14.63;5.57;;;;;;;-10.21;61.64;100587.56;5074921;28;20165;-71
2022/01/12 12:34:24;;;;;;;14.77;4.55;;;;;;;-10.49;62.67;100564.06;5075713;28;20063;-74
2022/01/12 12:37:01;;;;;;;13.90;5.18;;;;;;;-10.95;63.59;100544.78;5042554;28;20185;-74
2022/01/12 12:39:32;;;;;;;13.68;3.97;;;;;;;-10.76;63.46;100571.81;5092098;28;20044;-73